Time;durP1;ratioP1;P1;durP2;ratioP2;P2;SDS_P1;SDS_P2;PMS_P1;PMS_P2;Temp;Humidity;BMP_temperature;BMP_pressure;BME280_temperature;BME280_humidity;BME280_pressure;Samples;Min_cycle;Max_cycle;Signal;HPM_P1;HPM_P2
2022/04/28 00:03:11;;;;;;;8.50;7.70;;;;;;;11.53;57.51;99619.34;7004243;28;20230;-80
2022/04/28 00:06:32;;;;;;;8.87;7.50;;;;;;;11.51;57.42;99618.69;7002570;28;20677;-82
2022/04/28 00:09:54;;;;;;;8.37;7.57;;;;;;;11.42;57.25;99617.13;7002342;28;20228;-82
2022/04/28 00:13:17;;;;;;;9.93;8.00;;;;;;;11.29;57.45;99608.88;7002424;28;20210;-82
2022/04/28 00:16:40;;;;;;;7.93;7.13;;;;;;;11.49;57.47;99610.78;7001642;28;20205;-82
2022/04/28 00:20:01;;;;;;;7.90;7.10;;;;;;;11.48;56.78;99625.31;7002518;28;20190;-82
2022/04/28 00:23:23;;;;;;;8.57;7.67;;;;;;;11.39;57.01;99622.94;7001759;28;20270;-83
2022/04/28 00:26:44;;;;;;;7.73;6.97;;;;;;;11.48;56.83;99614.50;7002111;28;20299;-83
2022/04/28 00:30:08;;;;;;;7.50;6.80;;;;;;;11.33;56.92;99586.72;7002129;28;20238;-82
2022/04/28 00:33:30;;;;;;;8.53;7.53;;;;;;;10.85;57.96;99610.81;7002605;28;20639;-82
2022/04/28 00:36:52;;;;;;;8.90;7.67;;;;;;;10.82;57.91;99614.75;7006548;28;20201;-82
2022/04/28 00:40:14;;;;;;;8.87;7.47;;;;;;;10.92;57.81;99623.38;7010164;28;20261;-82
2022/04/28 00:43:49;;;;;;;9.20;7.57;;;;;;;10.75;57.93;99597.59;7013505;28;20198;-82
2022/04/28 00:47:11;;;;;;;9.17;7.93;;;;;;;11.02;57.27;99615.81;7012363;28;20201;-82
2022/04/28 00:50:39;;;;;;;8.63;7.73;;;;;;;10.88;57.82;99611.28;7012451;28;20240;-82
2022/04/28 00:54:02;;;;;;;8.33;7.43;;;;;;;10.92;57.25;99579.38;7013069;28;20241;-82
2022/04/28 00:57:25;;;;;;;7.63;6.90;;;;;;;11.14;56.87;99613.47;7011841;28;20209;-81
2022/04/28 01:00:46;;;;;;;8.83;7.80;;;;;;;10.92;57.06;99584.78;7013247;28;20308;-82
2022/04/28 01:04:08;;;;;;;8.60;7.63;;;;;;;11.01;56.81;99626.81;7012802;28;20212;-82
2022/04/28 01:07:31;;;;;;;7.60;6.90;;;;;;;10.73;58.27;99626.63;7012246;28;20201;-82
2022/04/28 01:10:53;;;;;;;11.50;7.77;;;;;;;10.80;57.76;99597.06;7011735;28;20233;-82
2022/04/28 01:14:15;;;;;;;10.57;9.53;;;;;;;11.12;57.11;99623.63;7012085;28;20205;-82
2022/04/28 01:17:36;;;;;;;11.67;9.93;;;;;;;11.04;57.01;99619.16;7011256;28;20217;-82
2022/04/28 01:21:03;;;;;;;9.30;8.07;;;;;;;10.53;57.93;99624.69;7012661;28;20233;-83
2022/04/28 01:24:25;;;;;;;11.90;8.00;;;;;;;10.64;57.55;99621.53;7012891;28;20685;-83
2022/04/28 01:27:46;;;;;;;8.73;7.83;;;;;;;10.58;58.04;99617.69;7012365;28;20264;-84
2022/04/28 01:31:08;;;;;;;10.43;8.53;;;;;;;10.50;57.86;99615.09;7013451;28;20318;-83
2022/04/28 01:34:29;;;;;;;8.00;7.13;;;;;;;10.76;57.88;99612.78;7012763;28;20225;-83
2022/04/28 01:37:53;;;;;;;9.07;7.97;;;;;;;10.69;56.69;99627.19;7011392;28;20294;-83
2022/04/28 01:41:14;;;;;;;8.17;7.43;;;;;;;10.58;57.07;99611.47;7014190;28;20229;-82
2022/04/28 01:44:36;;;;;;;8.67;7.77;;;;;;;10.24;58.12;99621.94;7018238;28;20205;-83
2022/04/28 01:47:57;;;;;;;9.03;8.10;;;;;;;9.92;58.41;99576.41;7024975;28;20209;-83
2022/04/28 01:54:59;;;;;;;8.97;8.07;;;;;;;9.83;58.63;99625.97;7039298;28;20268;-83
2022/04/28 01:58:21;;;;;;;8.67;7.77;;;;;;;9.87;59.39;99638.88;7039448;28;20227;-83
2022/04/28 02:01:42;;;;;;;9.53;8.03;;;;;;;9.52;59.09;99590.22;7038310;28;20240;-83
2022/04/28 02:05:05;;;;;;;8.47;7.17;;;;;;;9.95;58.70;99613.75;7037550;28;20239;-83
2022/04/28 02:08:26;;;;;;;8.77;7.97;;;;;;;10.19;58.08;99618.94;7036892;28;20205;-83
2022/04/28 02:11:49;;;;;;;9.27;7.90;;;;;;;10.30;57.29;99619.34;7037547;28;20266;-83
2022/04/28 02:15:11;;;;;;;8.83;7.93;;;;;;;9.94;57.78;99609.38;7040727;28;20291;-83
2022/04/28 02:18:32;;;;;;;11.77;8.47;;;;;;;9.99;57.68;99621.28;7042584;28;20212;-83
2022/04/28 02:21:54;;;;;;;9.07;7.93;;;;;;;10.06;57.81;99626.81;7044037;28;20218;-83
2022/04/28 02:25:19;;;;;;;8.17;7.37;;;;;;;9.90;58.17;99629.63;7044783;28;20209;-83
2022/04/28 02:28:43;;;;;;;9.60;8.40;;;;;;;10.12;58.03;99620.72;7044014;28;20205;-83
2022/04/28 02:32:05;;;;;;;12.37;7.83;;;;;;;9.30;58.10;99532.69;7043164;28;20229;-83
2022/04/28 02:35:27;;;;;;;9.53;8.07;;;;;;;9.93;58.41;99611.22;7043023;28;20658;-83
2022/04/28 02:38:49;;;;;;;8.07;7.07;;;;;;;10.18;57.38;99642.38;7041957;28;20246;-83
2022/04/28 02:42:11;;;;;;;8.60;7.37;;;;;;;9.90;57.33;99640.38;7045336;28;20233;-83
2022/04/28 02:45:34;;;;;;;9.03;8.13;;;;;;;9.94;57.05;99639.03;7045654;28;20205;-85
2022/04/28 02:48:56;;;;;;;8.73;7.33;;;;;;;9.61;57.90;99641.13;7045037;28;20212;-85
2022/04/28 02:52:18;;;;;;;8.13;7.33;;;;;;;9.88;57.52;99645.13;7046825;28;20244;-84
2022/04/28 02:55:40;;;;;;;8.40;7.60;;;;;;;9.79;57.27;99630.88;7045197;28;20209;-84
2022/04/28 02:59:03;;;;;;;8.63;7.60;;;;;;;9.74;57.43;99614.44;7046225;28;20209;-84
2022/04/28 03:02:26;;;;;;;9.47;8.17;;;;;;;9.67;57.96;99639.56;7044071;28;20217;-86
2022/04/28 03:13:06;;;;;;;12.00;8.00;;;;;;;9.75;57.60;99656.50;7034713;28;20258;-87
2022/04/28 03:16:28;;;;;;;8.53;7.67;;;;;;;9.87;56.30;99649.66;7034705;28;20205;-87
2022/04/28 03:19:50;;;;;;;10.67;7.97;;;;;;;9.66;56.99;99657.59;7035165;28;20786;-86
2022/04/28 03:23:13;;;;;;;7.77;7.00;;;;;;;9.57;57.90;99639.78;7035899;28;20229;-86
2022/04/28 03:26:37;;;;;;;7.60;6.90;;;;;;;9.52;57.74;99654.81;7039346;28;20212;-85
2022/04/28 03:29:59;;;;;;;8.27;7.40;;;;;;;9.70;57.11;99669.66;7045900;28;20228;-86
2022/04/28 03:33:20;;;;;;;8.90;8.00;;;;;;;9.48;56.92;99629.25;7045068;28;20208;-85
2022/04/28 03:36:52;;;;;;;7.67;6.93;;;;;;;9.18;57.71;99674.00;7044132;28;20220;-85
2022/04/28 03:40:16;;;;;;;8.50;7.70;;;;;;;9.10;57.41;99624.78;7043494;28;20247;-85
2022/04/28 03:43:41;;;;;;;8.43;7.63;;;;;;;9.57;56.69;99668.59;7044705;28;20219;-85
2022/04/28 03:47:03;;;;;;;9.57;8.23;;;;;;;9.28;57.64;99671.09;7043593;28;20272;-84
2022/04/28 03:50:24;;;;;;;9.80;8.00;;;;;;;9.08;58.44;99657.22;7045298;28;20247;-85
2022/04/28 03:53:47;;;;;;;12.27;9.30;;;;;;;9.47;58.12;99678.72;7042040;28;20208;-86
2022/04/28 03:57:09;;;;;;;12.33;9.13;;;;;;;9.10;56.72;99589.81;7044861;28;20205;-85
2022/04/28 04:00:31;;;;;;;17.20;11.67;;;;;;;9.65;56.61;99666.69;7044307;28;20228;-88
2022/04/28 04:03:52;;;;;;;9.03;7.30;;;;;;;9.04;57.24;99604.78;7045092;28;20208;-84
2022/04/28 04:07:14;;;;;;;7.83;6.77;;;;;;;9.38;56.82;99666.31;7043710;28;20212;-85
2022/04/28 04:10:37;;;;;;;17.83;10.00;;;;;;;9.53;57.00;99686.94;7043947;28;20240;-85
2022/04/28 04:13:59;;;;;;;8.20;7.30;;;;;;;9.45;56.74;99662.75;7043094;28;20616;-85
2022/04/28 04:17:30;;;;;;;8.07;7.23;;;;;;;8.61;58.25;99678.91;7044934;28;20227;-85
2022/04/28 04:21:00;;;;;;;8.17;7.37;;;;;;;8.93;58.73;99679.66;7044955;28;20302;-85
2022/04/28 04:24:21;;;;;;;10.67;7.70;;;;;;;8.47;58.69;99661.63;7043969;28;20204;-85
2022/04/28 04:27:45;;;;;;;8.33;7.23;;;;;;;8.75;59.50;99692.47;7042712;28;20226;-85
2022/04/28 04:34:46;;;;;;;7.70;7.00;;;;;;;9.09;58.18;99676.91;7034270;28;20204;-86
2022/04/28 04:38:07;;;;;;;7.73;6.93;;;;;;;8.88;58.01;99675.78;7032187;28;20257;-86
2022/04/28 04:41:29;;;;;;;9.80;8.17;;;;;;;9.15;58.48;99693.19;7033537;28;20223;-86
2022/04/28 04:44:52;;;;;;;8.37;7.53;;;;;;;9.20;58.00;99693.50;7035187;28;20201;-85
2022/04/28 04:48:14;;;;;;;9.13;8.23;;;;;;;9.39;57.60;99714.59;7031649;28;20231;-85
2022/04/28 04:51:38;;;;;;;7.90;7.10;;;;;;;8.99;57.61;99711.25;7036022;28;20236;-84
2022/04/28 04:55:00;;;;;;;9.27;7.53;;;;;;;8.69;57.97;99657.38;7041662;28;20204;-83
2022/04/28 04:58:22;;;;;;;7.90;6.87;;;;;;;9.16;57.93;99716.38;7039651;28;20222;-85
2022/04/28 05:01:45;;;;;;;8.97;7.30;;;;;;;8.84;58.34;99669.09;7043637;28;20228;-85
2022/04/28 05:05:21;;;;;;;8.43;6.73;;;;;;;9.35;56.61;99698.97;7042891;28;20229;-87
2022/04/28 05:08:42;;;;;;;7.20;6.50;;;;;;;9.10;57.77;99730.53;7043792;28;20220;-86
2022/04/28 05:12:05;;;;;;;7.73;6.93;;;;;;;8.93;58.93;99740.66;7033820;28;20232;-86
2022/04/28 05:15:27;;;;;;;11.73;8.00;;;;;;;8.95;58.36;99747.53;7044227;28;20236;-86
2022/04/28 05:18:50;;;;;;;16.43;12.67;;;;;;;9.21;58.52;99746.28;7038814;28;20272;-87
2022/04/28 05:22:14;;;;;;;10.00;7.87;;;;;;;8.60;60.67;99736.38;7048094;28;20260;-85
2022/04/28 05:25:36;;;;;;;8.67;7.80;;;;;;;9.61;59.54;99731.81;7054590;28;20231;-86
2022/04/28 05:28:58;;;;;;;8.10;7.37;;;;;;;10.16;57.98;99748.69;7048318;28;20220;-86
2022/04/28 05:32:20;;;;;;;7.87;7.10;;;;;;;10.47;56.77;99744.03;7046868;28;20236;-85
2022/04/28 05:35:43;;;;;;;13.40;9.57;;;;;;;10.97;55.83;99753.16;7040694;28;20209;-86
2022/04/28 05:39:05;;;;;;;10.20;8.63;;;;;;;11.45;53.85;99725.59;7040927;28;20205;-85
2022/04/28 05:45:41;;;;;;;9.57;8.17;;;;;;;11.48;54.93;99756.78;7039658;28;20218;-85
2022/04/28 05:46:08;;;;;;;11.00;9.87;;;;;;;11.37;55.89;99751.88;7031899;28;20206;-84
2022/04/28 05:49:30;;;;;;;10.97;8.67;;;;;;;11.34;55.13;99744.97;7031212;28;20247;-84
2022/04/28 05:52:53;;;;;;;9.67;8.23;;;;;;;11.85;53.83;99710.72;7024334;28;20229;-83
2022/04/28 05:56:14;;;;;;;10.20;7.37;;;;;;;12.13;53.96;99765.72;7021764;28;20209;-84
2022/04/28 05:59:36;;;;;;;10.60;7.93;;;;;;;12.30;53.36;99757.19;7010393;28;20206;-84
2022/04/28 06:02:57;;;;;;;8.10;7.30;;;;;;;12.06;53.38;99756.72;7007797;28;20731;-83
2022/04/28 06:06:19;;;;;;;9.10;7.07;;;;;;;12.81;52.97;99772.19;7007944;28;20294;-84
2022/04/28 06:09:42;;;;;;;9.13;7.67;;;;;;;13.31;52.38;99765.72;7008239;28;20246;-84
2022/04/28 06:13:03;;;;;;;9.20;7.33;;;;;;;13.32;51.47;99775.50;7007558;28;20229;-84
2022/04/28 06:16:25;;;;;;;8.63;7.83;;;;;;;13.12;51.18;99779.97;7006615;28;20218;-83
2022/04/28 06:19:47;;;;;;;9.33;7.80;;;;;;;12.80;52.52;99769.72;7007040;28;20210;-84
2022/04/28 06:23:09;;;;;;;9.23;7.43;;;;;;;13.69;50.53;99781.34;7006655;28;20228;-81
2022/04/28 06:26:33;;;;;;;11.20;8.13;;;;;;;14.05;51.69;99775.69;7007043;28;20683;-81
2022/04/28 06:29:54;;;;;;;9.83;8.10;;;;;;;14.18;50.82;99759.44;7007689;28;20212;-81
2022/04/28 06:33:16;;;;;;;9.50;8.03;;;;;;;14.45;50.16;99783.72;7006714;28;20231;-81
2022/04/28 06:36:37;;;;;;;8.57;7.77;;;;;;;14.88;49.63;99789.63;7007076;28;20211;-81
2022/04/28 06:39:59;;;;;;;9.87;8.03;;;;;;;15.14;48.47;99779.59;7004990;28;20215;-82
2022/04/28 06:43:22;;;;;;;11.70;8.97;;;;;;;15.47;48.38;99776.84;7006753;28;20250;-80
2022/04/28 06:46:44;;;;;;;9.77;8.77;;;;;;;15.38;48.98;99780.81;7006320;28;20585;-80
2022/04/28 06:50:06;;;;;;;10.07;9.07;;;;;;;15.91;47.81;99771.44;7006070;28;20210;-80
2022/04/28 06:53:27;;;;;;;11.20;8.90;;;;;;;15.88;47.67;99789.06;7005087;28;20235;-80
2022/04/28 06:56:49;;;;;;;11.33;9.27;;;;;;;16.17;48.34;99785.78;7004907;28;20197;-80
2022/04/28 07:00:13;;;;;;;11.73;8.77;;;;;;;16.72;47.01;99787.78;7008536;28;20678;-80
2022/04/28 07:03:35;;;;;;;11.60;9.10;;;;;;;16.77;46.74;99776.22;7005327;28;20215;-80
2022/04/28 07:06:57;;;;;;;10.63;8.60;;;;;;;17.11;45.78;99781.19;7005938;28;20209;-80
2022/04/28 07:10:19;;;;;;;10.10;8.90;;;;;;;17.26;45.26;99787.09;7005625;28;20569;-80
2022/04/28 07:13:40;;;;;;;9.13;8.30;;;;;;;17.89;44.36;99778.50;7005489;28;20230;-80
2022/04/28 07:17:04;;;;;;;8.80;7.97;;;;;;;18.19;44.05;99764.88;7004644;28;20241;-80
2022/04/28 07:20:25;;;;;;;12.97;7.70;;;;;;;17.71;44.60;99761.28;7005683;28;20225;-80
2022/04/28 07:23:47;;;;;;;10.03;9.03;;;;;;;18.81;42.96;99786.28;7005669;28;20679;-80
2022/04/28 07:27:08;;;;;;;7.30;6.60;;;;;;;18.27;40.88;99770.84;7004802;28;20215;-80
2022/04/28 07:30:30;;;;;;;8.13;7.33;;;;;;;18.11;41.32;99776.13;7005578;28;20222;-80
2022/04/28 07:33:53;;;;;;;7.57;6.83;;;;;;;18.95;40.29;99777.63;7005334;28;20251;-80
2022/04/28 07:37:15;;;;;;;7.17;6.47;;;;;;;18.34;41.38;99768.88;7005486;28;20229;-80
2022/04/28 07:40:37;;;;;;;7.50;6.33;;;;;;;18.19;40.25;99773.06;7003844;28;20226;-80
2022/04/28 07:43:59;;;;;;;6.93;5.73;;;;;;;19.03;41.72;99787.38;7005511;28;20611;-80
2022/04/28 07:47:20;;;;;;;6.87;6.17;;;;;;;19.00;40.88;99779.66;7004636;28;20209;-80
2022/04/28 07:50:43;;;;;;;6.57;5.97;;;;;;;18.34;39.34;99771.63;7005556;28;20308;-80
2022/04/28 07:54:05;;;;;;;8.97;6.33;;;;;;;18.78;39.82;99767.59;7004829;28;20206;-80
2022/04/28 07:57:27;;;;;;;6.03;5.43;;;;;;;19.72;39.46;99766.38;7005074;28;20209;-79
2022/04/28 08:00:48;;;;;;;6.13;5.53;;;;;;;19.21;38.80;99787.31;7005087;28;20235;-80
2022/04/28 08:04:10;;;;;;;5.57;4.97;;;;;;;20.22;37.39;99774.84;7005340;28;20659;-80
2022/04/28 08:07:33;;;;;;;5.90;5.40;;;;;;;20.25;35.16;99791.63;7005957;28;20570;-80
2022/04/28 08:10:55;;;;;;;5.10;4.60;;;;;;;19.78;35.57;99800.13;7005326;28;20222;-79
2022/04/28 08:14:16;;;;;;;5.23;4.73;;;;;;;20.87;35.26;99782.38;7005108;28;20238;-77
2022/04/28 08:17:38;;;;;;;5.10;4.60;;;;;;;21.20;33.51;99796.13;7004278;28;20207;-79
2022/04/28 08:21:01;;;;;;;5.13;4.73;;;;;;;19.48;34.48;99794.81;7005527;28;20232;-79
2022/04/28 08:24:24;;;;;;;5.17;4.67;;;;;;;19.39;34.86;99804.44;7005384;28;20202;-79
2022/04/28 08:27:46;;;;;;;5.73;4.77;;;;;;;20.89;33.40;99795.88;7005458;28;20208;-79
2022/04/28 08:31:07;;;;;;;4.33;3.97;;;;;;;20.43;31.79;99801.53;7005919;28;20713;-79
2022/04/28 08:34:29;;;;;;;6.83;5.40;;;;;;;19.65;33.86;99801.25;7005213;28;20622;-79
2022/04/28 08:37:51;;;;;;;4.83;4.43;;;;;;;20.24;33.30;99797.31;7005055;28;20658;-79
2022/04/28 08:41:15;;;;;;;5.37;4.80;;;;;;;19.51;34.99;99801.72;7004686;28;20299;-79
2022/04/28 08:44:37;;;;;;;5.40;4.40;;;;;;;20.21;33.62;99789.56;7002206;28;20658;-79
2022/04/28 08:48:00;;;;;;;4.93;4.30;;;;;;;21.59;30.98;99782.22;7001688;28;20228;-79
2022/04/28 08:51:24;;;;;;;4.87;4.13;;;;;;;21.76;30.68;99787.69;7002463;28;20234;-79
2022/04/28 08:54:46;;;;;;;5.90;4.53;;;;;;;21.54;28.79;99793.09;7002568;28;20244;-79
2022/04/28 08:58:09;;;;;;;4.40;3.63;;;;;;;22.13;29.07;99781.31;7004283;28;20259;-79
2022/04/28 09:01:31;;;;;;;4.47;4.00;;;;;;;23.02;28.37;99780.66;7007270;28;20261;-79
2022/04/28 09:04:52;;;;;;;3.90;3.53;;;;;;;22.72;27.57;99774.06;7007698;28;20206;-79
2022/04/28 09:08:16;;;;;;;4.57;3.33;;;;;;;23.24;26.14;99784.19;7007370;28;20736;-79
2022/04/28 09:11:40;;;;;;;3.50;3.20;;;;;;;23.26;26.32;99792.19;7015268;28;20233;-79
2022/04/28 09:15:12;;;;;;;4.50;3.47;;;;;;;23.51;25.58;99787.72;7035210;28;20261;-81
2022/04/28 09:18:34;;;;;;;4.17;3.13;;;;;;;24.28;25.20;99794.22;7034540;28;20241;-80
2022/04/28 09:21:56;;;;;;;4.17;3.10;;;;;;;21.94;27.28;99801.13;7035009;28;20277;-79
2022/04/28 09:25:20;;;;;;;5.23;4.13;;;;;;;22.03;27.73;99792.22;7035002;28;20196;-80
2022/04/28 09:28:41;;;;;;;11.37;10.27;;;;;;;22.99;26.92;99769.34;7034733;28;20196;-75
2022/04/28 09:32:10;;;;;;;4.40;4.00;;;;;;;23.31;25.52;99783.97;7034216;28;20519;-80
2022/04/28 09:35:32;;;;;;;4.77;4.00;;;;;;;21.99;26.26;99798.44;7034862;28;20354;-79
2022/04/28 09:38:54;;;;;;;4.70;3.40;;;;;;;22.19;25.26;99791.28;7033667;28;20206;-79
2022/04/28 09:42:30;;;;;;;4.00;3.20;;;;;;;21.02;27.73;99792.78;7034517;28;20360;-79
2022/04/28 09:45:51;;;;;;;4.30;3.60;;;;;;;21.84;27.30;99766.13;7034269;28;20213;-79
2022/04/28 09:49:18;;;;;;;4.17;3.30;;;;;;;22.15;26.38;99776.44;7033546;28;20197;-80
2022/04/28 09:52:42;;;;;;;3.47;3.17;;;;;;;22.03;27.46;99791.38;7033901;28;20325;-79
2022/04/28 09:56:06;;;;;;;5.50;3.40;;;;;;;23.67;25.58;99772.13;7027908;28;20221;-80
2022/04/28 09:59:28;;;;;;;3.90;3.60;;;;;;;22.60;25.08;99776.94;7006073;28;20283;-78
2022/04/28 10:02:50;;;;;;;3.60;3.30;;;;;;;21.71;26.51;99777.47;7018524;28;20230;-80
2022/04/28 10:06:13;;;;;;;3.43;3.13;;;;;;;21.71;24.55;99782.97;7014109;28;20213;-79
2022/04/28 10:09:35;;;;;;;4.80;3.30;;;;;;;22.31;24.90;99734.28;7008044;28;20216;-82
2022/04/28 10:12:57;;;;;;;4.87;3.27;;;;;;;23.79;23.27;99715.69;7007476;28;20259;-80
2022/04/28 10:16:21;;;;;;;4.23;3.13;;;;;;;23.96;23.11;99770.66;7018182;28;20246;-80
2022/04/28 10:19:46;;;;;;;3.47;3.17;;;;;;;22.47;24.93;99774.63;7020746;28;20813;-81
2022/04/28 10:23:11;;;;;;;3.73;3.40;;;;;;;22.49;24.68;99766.94;7035641;28;20227;-81
2022/04/28 10:34:12;;;;;;;7.07;3.00;;;;;;;22.33;24.92;99769.75;6929064;28;20593;-80
2022/04/28 10:37:35;;;;;;;4.00;3.13;;;;;;;22.84;25.41;99742.53;7005377;28;20208;-80
2022/04/28 10:40:59;;;;;;;5.93;4.33;;;;;;;21.86;25.77;99738.41;7006401;28;20685;-80
2022/04/28 10:44:29;;;;;;;3.57;3.20;;;;;;;22.82;24.82;99763.13;7024286;28;20222;-80
2022/04/28 10:48:14;;;;;;;4.33;3.30;;;;;;;22.72;24.23;99768.56;7018831;28;20563;-80
2022/04/28 10:51:37;;;;;;;3.60;3.30;;;;;;;22.96;23.41;99767.94;7007452;28;20351;-79
2022/04/28 10:55:00;;;;;;;3.37;3.07;;;;;;;22.74;24.09;99753.47;7013370;28;20218;-80
2022/04/28 10:58:24;;;;;;;3.47;2.90;;;;;;;23.16;24.74;99732.41;7023323;28;20199;-79
2022/04/28 11:01:46;;;;;;;3.67;2.93;;;;;;;24.78;22.42;99741.97;7037974;28;20225;-80
2022/04/28 11:05:27;;;;;;;4.03;3.30;;;;;;;22.00;24.41;99776.22;7034584;28;20208;-80
2022/04/28 11:08:50;;;;;;;3.33;3.03;;;;;;;21.90;25.74;99742.31;7032562;28;20213;-80
2022/04/28 11:12:13;;;;;;;3.30;3.00;;;;;;;21.81;24.67;99755.66;7033119;28;20228;-80
2022/04/28 11:15:37;;;;;;;3.20;2.90;;;;;;;23.42;23.72;99741.66;7033044;28;20256;-80
2022/04/28 11:18:59;;;;;;;3.60;3.30;;;;;;;24.48;23.01;99761.19;7032523;28;20307;-80
2022/04/28 11:22:21;;;;;;;3.10;2.90;;;;;;;25.28;20.91;99755.81;7031779;28;20224;-80
2022/04/28 11:25:44;;;;;;;5.57;3.13;;;;;;;25.29;22.93;99740.91;7028175;28;20208;-80
2022/04/28 11:29:06;;;;;;;6.63;2.83;;;;;;;25.46;21.75;99754.41;7009323;28;20574;-80
2022/04/28 11:32:29;;;;;;;3.37;2.93;;;;;;;25.80;21.51;99727.81;7009348;28;20255;-80
2022/04/28 11:35:51;;;;;;;3.23;2.90;;;;;;;23.67;22.89;99750.88;7023713;28;20221;-80
2022/04/28 11:39:13;;;;;;;2.97;2.77;;;;;;;23.09;24.68;99740.03;7031468;28;20242;-80
2022/04/28 11:42:36;;;;;;;3.23;3.00;;;;;;;24.45;22.50;99761.75;7022855;28;20227;-80
2022/04/28 11:45:57;;;;;;;4.30;2.97;;;;;;;25.28;21.70;99766.03;7023701;28;20540;-79
2022/04/28 11:49:21;;;;;;;2.97;2.67;;;;;;;23.17;22.42;99741.47;7023979;28;20208;-79
2022/04/28 11:52:42;;;;;;;3.03;2.73;;;;;;;23.47;23.08;99734.25;7003613;28;20267;-79
2022/04/28 11:56:14;;;;;;;2.67;2.47;;;;;;;25.08;21.05;99749.44;7013349;28;20340;-79
2022/04/28 11:59:37;;;;;;;3.30;3.00;;;;;;;23.95;22.31;99735.94;7015886;28;20209;-79
2022/04/28 12:02:58;;;;;;;3.30;3.00;;;;;;;24.25;22.83;99755.34;7031723;28;20251;-79
2022/04/28 12:06:22;;;;;;;2.70;2.50;;;;;;;24.28;22.46;99746.50;7031849;28;20599;-79
2022/04/28 12:20:53;;;;;;;3.13;2.83;;;;;;;25.47;21.91;99740.31;7030446;28;20225;-79
2022/04/28 12:24:18;;;;;;;3.90;2.70;;;;;;;24.16;22.36;99756.94;7031525;28;20240;-79
2022/04/28 12:27:49;;;;;;;3.17;2.87;;;;;;;22.81;23.15;99742.25;7019390;28;20235;-79
2022/04/28 12:31:11;;;;;;;2.80;2.60;;;;;;;22.28;24.08;99758.69;7023983;28;20304;-79
2022/04/28 12:34:33;;;;;;;2.90;2.70;;;;;;;22.84;23.24;99744.47;7030431;28;20703;-79
2022/04/28 12:38:00;;;;;;;2.80;2.60;;;;;;;23.27;22.93;99736.06;7015303;28;20208;-79
2022/04/28 12:41:26;;;;;;;2.60;2.40;;;;;;;23.85;22.74;99730.34;7031487;28;20228;-79
2022/04/28 12:44:47;;;;;;;3.73;2.83;;;;;;;23.93;21.43;99727.09;7029830;28;20245;-81
2022/04/28 12:48:23;;;;;;;5.70;2.77;;;;;;;23.73;23.42;99738.81;7019641;28;20207;-79
2022/04/28 12:51:46;;;;;;;2.93;2.70;;;;;;;23.76;23.96;99726.44;7032103;28;20224;-81
2022/04/28 12:55:08;;;;;;;3.40;2.90;;;;;;;24.34;21.97;99713.19;7033550;28;20235;-79
2022/04/28 12:58:32;;;;;;;3.10;2.90;;;;;;;24.63;21.96;99732.84;7030660;28;20201;-79
2022/04/28 13:01:54;;;;;;;4.03;3.00;;;;;;;24.93;21.26;99702.50;7031526;28;20237;-79
2022/04/28 13:05:18;;;;;;;3.10;2.83;;;;;;;25.74;21.01;99712.34;7031199;28;20275;-79
2022/04/28 13:08:40;;;;;;;3.07;2.87;;;;;;;24.42;22.76;99720.91;7030994;28;20202;-80
2022/04/28 13:12:01;;;;;;;3.13;2.83;;;;;;;23.09;22.71;99695.16;7030239;28;20310;-79
2022/04/28 13:15:25;;;;;;;3.30;3.00;;;;;;;23.09;22.31;99720.75;7031146;28;20288;-79
2022/04/28 13:18:46;;;;;;;3.30;2.70;;;;;;;24.79;21.80;99702.22;7028662;28;20617;-79
2022/04/28 13:22:09;;;;;;;2.60;2.40;;;;;;;24.95;21.74;99681.81;7030365;28;20299;-79
2022/04/28 13:25:31;;;;;;;3.40;2.70;;;;;;;24.48;22.69;99678.47;7010846;28;20198;-79
2022/04/28 13:28:53;;;;;;;3.20;2.97;;;;;;;24.19;21.65;99685.56;7023410;28;20220;-79
2022/04/28 13:32:16;;;;;;;3.10;2.73;;;;;;;24.60;21.83;99695.59;7030109;28;20226;-79
2022/04/28 13:35:38;;;;;;;5.03;2.80;;;;;;;23.50;25.22;99675.94;7029467;28;20200;-79
2022/04/28 13:38:59;;;;;;;4.07;2.77;;;;;;;24.38;22.81;99685.91;7009983;28;20294;-79
2022/04/28 13:42:21;;;;;;;3.13;2.83;;;;;;;25.32;21.40;99663.03;7029945;28;20237;-79
2022/04/28 13:45:43;;;;;;;2.70;2.50;;;;;;;24.97;21.36;99676.03;7033729;28;20221;-79
2022/04/28 13:49:06;;;;;;;2.97;2.70;;;;;;;24.04;23.64;99680.03;7019144;28;20288;-79
2022/04/28 13:52:27;;;;;;;5.87;4.17;;;;;;;24.45;23.20;99679.03;7007865;28;20237;-79
2022/04/28 13:55:49;;;;;;;2.97;2.77;;;;;;;22.83;23.53;99680.38;7007069;28;20307;-79
2022/04/28 13:59:11;;;;;;;3.27;2.63;;;;;;;23.33;23.42;99658.75;7007499;28;20300;-79
2022/04/28 14:02:33;;;;;;;3.50;3.20;;;;;;;23.75;23.90;99670.53;7020668;28;20253;-79
2022/04/28 14:05:57;;;;;;;2.90;2.70;;;;;;;23.70;25.37;99659.50;7007140;28;20292;-77
2022/04/28 14:09:19;;;;;;;3.90;3.10;;;;;;;24.44;22.38;99657.22;7007051;28;20209;-77
2022/04/28 14:12:42;;;;;;;3.30;3.00;;;;;;;24.48;23.45;99639.88;7006535;28;20241;-77
2022/04/28 14:16:04;;;;;;;3.30;2.67;;;;;;;24.68;22.69;99650.13;7025222;28;20243;-78
2022/04/28 14:19:26;;;;;;;3.73;3.27;;;;;;;24.81;23.76;99635.75;7025818;28;20564;-79
2022/04/28 14:22:49;;;;;;;6.97;3.40;;;;;;;24.62;24.21;99609.84;7006794;28;20310;-78
2022/04/28 14:26:11;;;;;;;3.40;3.10;;;;;;;24.34;24.30;99636.00;7027840;28;20213;-78
2022/04/28 14:29:33;;;;;;;5.33;3.63;;;;;;;23.84;23.63;99651.56;7034686;28;20207;-79
2022/04/28 14:32:55;;;;;;;4.00;3.13;;;;;;;23.40;23.71;99656.59;7034298;28;20232;-79
2022/04/28 14:36:16;;;;;;;4.20;3.20;;;;;;;23.99;23.76;99649.72;7034750;28;20211;-79
2022/04/28 14:39:40;;;;;;;4.13;3.03;;;;;;;24.84;23.82;99647.06;7031110;28;20208;-79
2022/04/28 14:43:02;;;;;;;3.90;3.20;;;;;;;24.10;23.09;99650.56;7012871;28;20227;-79
2022/04/28 14:46:25;;;;;;;3.33;3.10;;;;;;;23.81;22.69;99654.84;7031003;28;20197;-79
2022/04/28 14:53:25;;;;;;;3.30;3.10;;;;;;;22.96;24.82;99644.16;7033606;28;20220;-79
2022/04/28 14:56:48;;;;;;;3.40;3.10;;;;;;;23.30;26.00;99642.78;7034124;28;20212;-79
2022/04/28 15:00:12;;;;;;;3.23;2.90;;;;;;;24.43;23.66;99639.84;7034799;28;20555;-79
2022/04/28 15:03:37;;;;;;;3.90;2.97;;;;;;;24.54;23.50;99630.50;7034878;28;20282;-79
2022/04/28 15:06:58;;;;;;;3.50;3.10;;;;;;;24.32;22.34;99649.25;7025803;28;20226;-79
2022/04/28 15:10:20;;;;;;;4.40;3.23;;;;;;;22.96;24.42;99654.34;7011062;28;20698;-79
2022/04/28 15:13:43;;;;;;;3.80;3.17;;;;;;;23.34;24.06;99651.31;7033879;28;20715;-79
2022/04/28 15:17:05;;;;;;;3.90;3.47;;;;;;;23.61;24.08;99641.00;7032699;28;20228;-79
2022/04/28 15:20:27;;;;;;;3.03;2.80;;;;;;;24.07;23.87;99657.44;7027598;28;20222;-79
2022/04/28 15:23:48;;;;;;;3.00;2.70;;;;;;;23.68;24.17;99633.31;7034475;28;20210;-79
2022/04/28 15:27:10;;;;;;;2.90;2.70;;;;;;;23.74;23.96;99651.50;7034497;28;20207;-79
2022/04/28 15:30:33;;;;;;;4.07;2.90;;;;;;;23.94;23.25;99643.34;7035255;28;20231;-79
2022/04/28 15:33:54;;;;;;;3.30;2.63;;;;;;;24.92;22.11;99641.00;7033572;28;20225;-79
2022/04/28 15:37:16;;;;;;;2.70;2.50;;;;;;;24.47;22.15;99638.22;7034079;28;20203;-79
2022/04/28 15:40:38;;;;;;;3.87;2.73;;;;;;;24.17;22.39;99646.44;7033345;28;20242;-79
2022/04/28 15:43:59;;;;;;;2.77;2.50;;;;;;;24.67;22.54;99638.25;7037072;28;20223;-79
2022/04/28 15:47:22;;;;;;;2.80;2.60;;;;;;;25.30;21.61;99640.41;7033842;28;20197;-79
2022/04/28 15:50:44;;;;;;;2.87;2.67;;;;;;;23.70;22.75;99642.13;7043384;28;20228;-79
2022/04/28 15:54:07;;;;;;;3.13;2.83;;;;;;;23.93;23.96;99627.91;7033082;28;20225;-79
2022/04/28 15:57:29;;;;;;;5.50;2.90;;;;;;;24.00;22.72;99620.22;7015216;28;20211;-79
2022/04/28 16:00:52;;;;;;;2.97;2.73;;;;;;;24.14;22.27;99643.41;7041452;28;20274;-79
2022/04/28 16:04:14;;;;;;;2.90;2.70;;;;;;;24.77;22.51;99640.19;7029387;28;20193;-79
2022/04/28 16:07:36;;;;;;;3.10;2.70;;;;;;;24.18;23.24;99631.56;7013986;28;20205;-78
2022/04/28 16:10:58;;;;;;;3.67;2.80;;;;;;;24.47;22.94;99612.56;7030012;28;20223;-79
2022/04/28 16:14:20;;;;;;;4.10;2.53;;;;;;;24.54;22.54;99626.91;7021501;28;20838;-79
2022/04/28 16:17:42;;;;;;;3.20;2.90;;;;;;;23.38;24.04;99606.50;7027818;28;20218;-79
2022/04/28 16:21:05;;;;;;;2.93;2.73;;;;;;;23.44;23.54;99561.38;7027287;28;20602;-79
2022/04/28 16:24:26;;;;;;;4.30;3.80;;;;;;;23.25;23.60;99620.72;7013637;28;20484;-78
2022/04/28 16:27:48;;;;;;;2.87;2.50;;;;;;;24.10;23.27;99611.97;7024325;28;20202;-79
2022/04/28 16:31:10;;;;;;;5.00;2.83;;;;;;;24.56;22.62;99622.78;7034551;28;20219;-79
2022/04/28 16:34:31;;;;;;;3.83;2.93;;;;;;;23.70;23.13;99628.34;7034555;28;20697;-78